Time;durP1;ratioP1;P1;durP2;ratioP2;P2;SDS_P1;SDS_P2;PMS_P1;PMS_P2;Temp;Humidity;BMP_temperature;BMP_pressure;BME280_temperature;BME280_humidity;BME280_pressure;Samples;Min_cycle;Max_cycle;Signal;HPM_P1;HPM_P2
2020/11/01 00:00:25;;;;;;;10.45;7.849999;;;;;;;5.44;100;95571.08;;;;
2020/11/01 00:01:25;;;;;;;12.3;8.05;;;;;;;5.48;100;95587.58;;;;
2020/11/01 00:02:26;;;;;;;12.3;8.05;;;;;;;5.48;100;95587.58;;;;
2020/11/01 00:03:28;;;;;;;12.3;8.05;;;;;;;5.48;100;95587.58;;;;
2020/11/01 00:04:29;;;;;;;12.3;8.05;;;;;;;5.48;100;95587.58;;;;
2020/11/01 00:05:29;;;;;;;12.3;8.05;;;;;;;5.48;100;95587.58;;;;
2020/11/01 00:06:30;;;;;;;12.3;8.05;;;;;;;5.48;100;95587.58;;;;
2020/11/01 00:07:30;;;;;;;12.3;8.05;;;;;;;5.48;100;95587.58;;;;
2020/11/01 00:08:31;;;;;;;12.3;8.05;;;;;;;5.48;100;95587.58;;;;
2020/11/01 00:09:32;;;;;;;12.3;8.05;;;;;;;5.48;100;95587.58;;;;
2020/11/01 00:10:32;;;;;;;12.3;8.05;;;;;;;5.48;100;95587.58;;;;
2020/11/01 00:11:32;;;;;;;10.9;7.75;;;;;;;5.42;100;95593.63;;;;
2020/11/01 00:12:33;;;;;;;10.9;7.75;;;;;;;5.42;100;95593.63;;;;
2020/11/01 00:13:35;;;;;;;10.9;7.75;;;;;;;5.42;100;95593.63;;;;
2020/11/01 00:14:35;;;;;;;10.9;7.75;;;;;;;5.42;100;95593.63;;;;
2020/11/01 00:15:36;;;;;;;10.9;7.75;;;;;;;5.42;100;95593.63;;;;
2020/11/01 00:16:37;;;;;;;10.9;7.75;;;;;;;5.42;100;95593.63;;;;
2020/11/01 00:17:37;;;;;;;10.9;7.75;;;;;;;5.42;100;95593.63;;;;
2020/11/01 00:18:38;;;;;;;10.9;7.75;;;;;;;5.42;100;95593.63;;;;
2020/11/01 00:19:38;;;;;;;10.9;7.75;;;;;;;5.42;100;95593.63;;;;
2020/11/01 00:20:39;;;;;;;10.9;7.75;;;;;;;5.42;100;95593.63;;;;
2020/11/01 00:21:39;;;;;;;10.9;7.75;;;;;;;5.42;100;95593.63;;;;
2020/11/01 00:22:40;;;;;;;16.15;11.9;;;;;;;5.45;100;95587.06;;;;
2020/11/01 00:23:40;;;;;;;16.15;11.9;;;;;;;5.45;100;95587.06;;;;
2020/11/01 00:24:41;;;;;;;16.15;11.9;;;;;;;5.45;100;95587.06;;;;
2020/11/01 00:25:41;;;;;;;16.15;11.9;;;;;;;5.45;100;95587.06;;;;
2020/11/01 00:26:42;;;;;;;16.15;11.9;;;;;;;5.45;100;95587.06;;;;
2020/11/01 00:27:42;;;;;;;16.15;11.9;;;;;;;5.45;100;95587.06;;;;
2020/11/01 00:28:43;;;;;;;16.15;11.9;;;;;;;5.45;100;95587.06;;;;
2020/11/01 00:29:43;;;;;;;16.15;11.9;;;;;;;5.45;100;95587.06;;;;
2020/11/01 00:30:44;;;;;;;16.15;11.9;;;;;;;5.45;100;95587.06;;;;
2020/11/01 00:31:46;;;;;;;16.15;11.9;;;;;;;5.45;100;95587.06;;;;
2020/11/01 00:32:47;;;;;;;23.3;15.25;;;;;;;5.36;100;95586.49;;;;
2020/11/01 00:33:47;;;;;;;23.3;15.25;;;;;;;5.36;100;95586.49;;;;
2020/11/01 00:34:51;;;;;;;23.3;15.25;;;;;;;5.36;100;95586.49;;;;
2020/11/01 00:35:52;;;;;;;23.3;15.25;;;;;;;5.36;100;95586.49;;;;
2020/11/01 00:36:57;;;;;;;23.3;15.25;;;;;;;5.36;100;95586.49;;;;
2020/11/01 00:37:58;;;;;;;23.3;15.25;;;;;;;5.36;100;95586.49;;;;
2020/11/01 00:38:58;;;;;;;23.3;15.25;;;;;;;5.36;100;95586.49;;;;
2020/11/01 00:39:59;;;;;;;23.3;15.25;;;;;;;5.36;100;95586.49;;;;
2020/11/01 00:40:59;;;;;;;23.3;15.25;;;;;;;5.36;100;95586.49;;;;
2020/11/01 00:42:00;;;;;;;23.3;15.25;;;;;;;5.36;100;95586.49;;;;
2020/11/01 00:43:00;;;;;;;23.3;15.25;;;;;;;5.36;100;95586.49;;;;
2020/11/01 00:44:01;;;;;;;14.05;10.05;;;;;;;5.27;100;95589.29;;;;
2020/11/01 00:45:01;;;;;;;14.05;10.05;;;;;;;5.27;100;95589.29;;;;
2020/11/01 00:46:02;;;;;;;14.05;10.05;;;;;;;5.27;100;95589.29;;;;
2020/11/01 00:47:03;;;;;;;14.05;10.05;;;;;;;5.27;100;95589.29;;;;
2020/11/01 00:48:03;;;;;;;14.05;10.05;;;;;;;5.27;100;95589.29;;;;
2020/11/01 00:49:04;;;;;;;14.05;10.05;;;;;;;5.27;100;95589.29;;;;
2020/11/01 00:50:04;;;;;;;14.05;10.05;;;;;;;5.27;100;95589.29;;;;
2020/11/01 00:51:05;;;;;;;14.05;10.05;;;;;;;5.27;100;95589.29;;;;
2020/11/01 00:52:05;;;;;;;14.05;10.05;;;;;;;5.27;100;95589.29;;;;
2020/11/01 00:53:06;;;;;;;14.05;10.05;;;;;;;5.27;100;95589.29;;;;
2020/11/01 00:54:07;;;;;;;12;7.95;;;;;;;5.11;100;95587.04;;;;
2020/11/01 00:55:07;;;;;;;12;7.95;;;;;;;5.11;100;95587.04;;;;
2020/11/01 00:56:08;;;;;;;12;7.95;;;;;;;5.11;100;95587.04;;;;
2020/11/01 00:57:10;;;;;;;12;7.95;;;;;;;5.11;100;95587.04;;;;
2020/11/01 00:58:10;;;;;;;12;7.95;;;;;;;5.11;100;95587.04;;;;
2020/11/01 00:59:11;;;;;;;12;7.95;;;;;;;5.11;100;95587.04;;;;
2020/11/01 01:00:11;;;;;;;12;7.95;;;;;;;5.11;100;95587.04;;;;
2020/11/01 01:01:12;;;;;;;12;7.95;;;;;;;5.11;100;95587.04;;;;
2020/11/01 01:02:13;;;;;;;12;7.95;;;;;;;5.11;100;95587.04;;;;
2020/11/01 01:03:13;;;;;;;12;7.95;;;;;;;5.11;100;95587.04;;;;
2020/11/01 01:04:14;;;;;;;12;7.95;;;;;;;5.11;100;95587.04;;;;
2020/11/01 01:05:14;;;;;;;11.45;7.400001;;;;;;;5.02;100;95584.58;;;;
2020/11/01 01:06:15;;;;;;;11.45;7.400001;;;;;;;5.02;100;95584.58;;;;
2020/11/01 01:07:15;;;;;;;11.45;7.400001;;;;;;;5.02;100;95584.58;;;;
2020/11/01 01:08:16;;;;;;;11.45;7.400001;;;;;;;5.02;100;95584.58;;;;
2020/11/01 01:09:16;;;;;;;11.45;7.400001;;;;;;;5.02;100;95584.58;;;;
2020/11/01 01:10:17;;;;;;;11.45;7.400001;;;;;;;5.02;100;95584.58;;;;
2020/11/01 01:11:17;;;;;;;11.45;7.400001;;;;;;;5.02;100;95584.58;;;;
2020/11/01 01:12:18;;;;;;;11.45;7.400001;;;;;;;5.02;100;95584.58;;;;
2020/11/01 01:13:18;;;;;;;11.45;7.400001;;;;;;;5.02;100;95584.58;;;;
2020/11/01 01:14:19;;;;;;;11.45;7.400001;;;;;;;5.02;100;95584.58;;;;
2020/11/01 01:15:19;;;;;;;10.6;7.1;;;;;;;4.92;100;95587.7;;;;
2020/11/01 01:16:20;;;;;;;10.6;7.1;;;;;;;4.92;100;95587.7;;;;
2020/11/01 01:17:20;;;;;;;10.6;7.1;;;;;;;4.92;100;95587.7;;;;
2020/11/01 01:18:21;;;;;;;10.6;7.1;;;;;;;4.92;100;95587.7;;;;
2020/11/01 01:19:21;;;;;;;10.6;7.1;;;;;;;4.92;100;95587.7;;;;
2020/11/01 01:20:22;;;;;;;10.6;7.1;;;;;;;4.92;100;95587.7;;;;
2020/11/01 01:21:22;;;;;;;10.6;7.1;;;;;;;4.92;100;95587.7;;;;
2020/11/01 01:22:25;;;;;;;10.6;7.1;;;;;;;4.92;100;95587.7;;;;
2020/11/01 01:23:25;;;;;;;10.6;7.1;;;;;;;4.92;100;95587.7;;;;
2020/11/01 01:24:26;;;;;;;10.6;7.1;;;;;;;4.92;100;95587.7;;;;
2020/11/01 01:25:26;;;;;;;10.6;7.1;;;;;;;4.92;100;95587.7;;;;
2020/11/01 01:26:27;;;;;;;11.4;8.199999;;;;;;;5.02;100;95602.92;;;;
2020/11/01 01:27:27;;;;;;;11.4;8.199999;;;;;;;5.02;100;95602.92;;;;
2020/11/01 01:28:28;;;;;;;11.4;8.199999;;;;;;;5.02;100;95602.92;;;;
2020/11/01 01:29:28;;;;;;;11.4;8.199999;;;;;;;5.02;100;95602.92;;;;
2020/11/01 01:30:29;;;;;;;11.4;8.199999;;;;;;;5.02;100;95602.92;;;;
2020/11/01 01:31:29;;;;;;;11.4;8.199999;;;;;;;5.02;100;95602.92;;;;
2020/11/01 01:32:30;;;;;;;11.4;8.199999;;;;;;;5.02;100;95602.92;;;;
2020/11/01 01:33:30;;;;;;;11.4;8.199999;;;;;;;5.02;100;95602.92;;;;
2020/11/01 01:34:31;;;;;;;11.4;8.199999;;;;;;;5.02;100;95602.92;;;;
2020/11/01 01:35:31;;;;;;;11.4;8.199999;;;;;;;5.02;100;95602.92;;;;
2020/11/01 01:36:32;;;;;;;11.4;7.249999;;;;;;;5;100;95604.96;;;;
2020/11/01 01:37:32;;;;;;;11.4;7.249999;;;;;;;5;100;95604.96;;;;
2020/11/01 01:38:33;;;;;;;11.4;7.249999;;;;;;;5;100;95604.96;;;;
2020/11/01 01:39:33;;;;;;;11.4;7.249999;;;;;;;5;100;95604.96;;;;
2020/11/01 01:40:34;;;;;;;11.4;7.249999;;;;;;;5;100;95604.96;;;;
2020/11/01 01:41:37;;;;;;;11.4;7.249999;;;;;;;5;100;95604.96;;;;
2020/11/01 01:42:37;;;;;;;11.4;7.249999;;;;;;;5;100;95604.96;;;;
2020/11/01 01:43:38;;;;;;;11.4;7.249999;;;;;;;5;100;95604.96;;;;
2020/11/01 01:44:39;;;;;;;11.4;7.249999;;;;;;;5;100;95604.96;;;;
2020/11/01 01:45:39;;;;;;;11.4;7.249999;;;;;;;5;100;95604.96;;;;
2020/11/01 01:46:40;;;;;;;11.4;7.249999;;;;;;;5;100;95604.96;;;;
2020/11/01 01:47:41;;;;;;;12.25;7.25;;;;;;;4.99;100;95605.05;;;;
2020/11/01 01:48:44;;;;;;;12.25;7.25;;;;;;;4.99;100;95605.05;;;;
2020/11/01 01:49:44;;;;;;;12.25;7.25;;;;;;;4.99;100;95605.05;;;;
2020/11/01 01:50:45;;;;;;;12.25;7.25;;;;;;;4.99;100;95605.05;;;;
2020/11/01 01:51:45;;;;;;;12.25;7.25;;;;;;;4.99;100;95605.05;;;;
2020/11/01 01:52:46;;;;;;;12.25;7.25;;;;;;;4.99;100;95605.05;;;;
2020/11/01 01:53:47;;;;;;;12.25;7.25;;;;;;;4.99;100;95605.05;;;;
2020/11/01 01:54:47;;;;;;;12.25;7.25;;;;;;;4.99;100;95605.05;;;;
2020/11/01 01:55:48;;;;;;;12.25;7.25;;;;;;;4.99;100;95605.05;;;;
2020/11/01 01:56:48;;;;;;;12.25;7.25;;;;;;;4.99;100;95605.05;;;;
2020/11/01 01:57:49;;;;;;;12.25;7.25;;;;;;;4.99;100;95605.05;;;;
2020/11/01 01:58:49;;;;;;;10.5;7.25;;;;;;;4.98;100;95599.81;;;;
2020/11/01 01:59:50;;;;;;;10.5;7.25;;;;;;;4.98;100;95599.81;;;;
2020/11/01 02:00:58;;;;;;;10.5;7.25;;;;;;;4.98;100;95599.81;;;;
2020/11/01 02:01:58;;;;;;;10.5;7.25;;;;;;;4.98;100;95599.81;;;;
2020/11/01 02:03:04;;;;;;;10.5;7.25;;;;;;;4.98;100;95599.81;;;;
2020/11/01 02:04:05;;;;;;;10.5;7.25;;;;;;;4.98;100;95599.81;;;;
2020/11/01 02:05:05;;;;;;;10.5;7.25;;;;;;;4.98;100;95599.81;;;;
2020/11/01 02:06:06;;;;;;;10.5;7.25;;;;;;;4.98;100;95599.81;;;;
2020/11/01 02:07:07;;;;;;;10.5;7.25;;;;;;;4.98;100;95599.81;;;;
2020/11/01 02:08:07;;;;;;;10.5;7.25;;;;;;;4.98;100;95599.81;;;;
2020/11/01 02:09:08;;;;;;;9.749999;6.8;;;;;;;5.04;100;95600.76;;;;
2020/11/01 02:10:08;;;;;;;9.749999;6.8;;;;;;;5.04;100;95600.76;;;;
2020/11/01 02:11:09;;;;;;;9.749999;6.8;;;;;;;5.04;100;95600.76;;;;
2020/11/01 02:12:09;;;;;;;9.749999;6.8;;;;;;;5.04;100;95600.76;;;;
2020/11/01 02:13:10;;;;;;;9.749999;6.8;;;;;;;5.04;100;95600.76;;;;
2020/11/01 02:14:11;;;;;;;9.749999;6.8;;;;;;;5.04;100;95600.76;;;;
2020/11/01 02:15:11;;;;;;;9.749999;6.8;;;;;;;5.04;100;95600.76;;;;
2020/11/01 02:16:12;;;;;;;9.749999;6.8;;;;;;;5.04;100;95600.76;;;;
2020/11/01 02:17:12;;;;;;;9.749999;6.8;;;;;;;5.04;100;95600.76;;;;
2020/11/01 02:18:13;;;;;;;9.749999;6.8;;;;;;;5.04;100;95600.76;;;;
2020/11/01 02:19:15;;;;;;;9.4;6.550001;;;;;;;4.93;100;95593.38;;;;
2020/11/01 02:20:16;;;;;;;9.4;6.550001;;;;;;;4.93;100;95593.38;;;;
2020/11/01 02:21:16;;;;;;;9.4;6.550001;;;;;;;4.93;100;95593.38;;;;
2020/11/01 02:22:20;;;;;;;9.4;6.550001;;;;;;;4.93;100;95593.38;;;;
2020/11/01 02:23:21;;;;;;;9.4;6.550001;;;;;;;4.93;100;95593.38;;;;
2020/11/01 02:24:21;;;;;;;9.4;6.550001;;;;;;;4.93;100;95593.38;;;;
2020/11/01 02:25:22;;;;;;;9.4;6.550001;;;;;;;4.93;100;95593.38;;;;
2020/11/01 02:26:22;;;;;;;9.4;6.550001;;;;;;;4.93;100;95593.38;;;;
2020/11/01 02:27:23;;;;;;;9.4;6.550001;;;;;;;4.93;100;95593.38;;;;
2020/11/01 02:28:24;;;;;;;9.4;6.550001;;;;;;;4.93;100;95593.38;;;;
2020/11/01 02:29:24;;;;;;;9.4;6.550001;;;;;;;4.93;100;95593.38;;;;
2020/11/01 02:30:25;;;;;;;9.75;6.749999;;;;;;;4.87;100;95598.58;;;;
2020/11/01 02:31:26;;;;;;;9.75;6.749999;;;;;;;4.87;100;95598.58;;;;
2020/11/01 02:32:28;;;;;;;9.75;6.749999;;;;;;;4.87;100;95598.58;;;;
2020/11/01 02:33:28;;;;;;;9.75;6.749999;;;;;;;4.87;100;95598.58;;;;
2020/11/01 02:34:29;;;;;;;9.75;6.749999;;;;;;;4.87;100;95598.58;;;;
2020/11/01 02:35:29;;;;;;;9.75;6.749999;;;;;;;4.87;100;95598.58;;;;
2020/11/01 02:36:30;;;;;;;9.75;6.749999;;;;;;;4.87;100;95598.58;;;;
2020/11/01 02:37:30;;;;;;;9.75;6.749999;;;;;;;4.87;100;95598.58;;;;
2020/11/01 02:38:31;;;;;;;9.75;6.749999;;;;;;;4.87;100;95598.58;;;;
2020/11/01 02:39:31;;;;;;;9.75;6.749999;;;;;;;4.87;100;95598.58;;;;
2020/11/01 02:40:32;;;;;;;11.05;6.799999;;;;;;;4.82;100;95598.33;;;;
2020/11/01 02:41:32;;;;;;;11.05;6.799999;;;;;;;4.82;100;95598.33;;;;
2020/11/01 02:42:33;;;;;;;11.05;6.799999;;;;;;;4.82;100;95598.33;;;;
2020/11/01 02:43:34;;;;;;;11.05;6.799999;;;;;;;4.82;100;95598.33;;;;
2020/11/01 02:44:34;;;;;;;11.05;6.799999;;;;;;;4.82;100;95598.33;;;;
2020/11/01 02:45:35;;;;;;;11.05;6.799999;;;;;;;4.82;100;95598.33;;;;
2020/11/01 02:46:35;;;;;;;11.05;6.799999;;;;;;;4.82;100;95598.33;;;;
2020/11/01 02:47:36;;;;;;;11.05;6.799999;;;;;;;4.82;100;95598.33;;;;
2020/11/01 02:48:37;;;;;;;11.05;6.799999;;;;;;;4.82;100;95598.33;;;;
2020/11/01 02:49:37;;;;;;;11.05;6.799999;;;;;;;4.82;100;95598.33;;;;
2020/11/01 02:50:38;;;;;;;11.05;6.799999;;;;;;;4.82;100;95598.33;;;;
2020/11/01 02:51:38;;;;;;;9.9;6.65;;;;;;;4.84;100;95593.2;;;;
2020/11/01 02:52:39;;;;;;;9.9;6.65;;;;;;;4.84;100;95593.2;;;;
2020/11/01 02:53:39;;;;;;;9.9;6.65;;;;;;;4.84;100;95593.2;;;;
2020/11/01 02:54:40;;;;;;;9.9;6.65;;;;;;;4.84;100;95593.2;;;;
2020/11/01 02:55:40;;;;;;;9.9;6.65;;;;;;;4.84;100;95593.2;;;;
2020/11/01 02:56:42;;;;;;;9.9;6.65;;;;;;;4.84;100;95593.2;;;;
2020/11/01 02:57:42;;;;;;;9.9;6.65;;;;;;;4.84;100;95593.2;;;;
2020/11/01 02:58:43;;;;;;;9.9;6.65;;;;;;;4.84;100;95593.2;;;;
2020/11/01 02:59:43;;;;;;;9.9;6.65;;;;;;;4.84;100;95593.2;;;;
2020/11/01 03:00:44;;;;;;;9.9;6.65;;;;;;;4.84;100;95593.2;;;;
2020/11/01 03:01:45;;;;;;;9.9;6.65;;;;;;;4.84;100;95593.2;;;;
2020/11/01 03:02:45;;;;;;;10.5;6.6;;;;;;;4.76;100;95594.17;;;;
2020/11/01 03:03:45;;;;;;;10.5;6.6;;;;;;;4.76;100;95594.17;;;;
2020/11/01 03:04:46;;;;;;;10.5;6.6;;;;;;;4.76;100;95594.17;;;;
2020/11/01 03:05:47;;;;;;;10.5;6.6;;;;;;;4.76;100;95594.17;;;;
2020/11/01 03:06:47;;;;;;;10.5;6.6;;;;;;;4.76;100;95594.17;;;;
2020/11/01 03:07:47;;;;;;;10.5;6.6;;;;;;;4.76;100;95594.17;;;;
2020/11/01 03:08:48;;;;;;;10.5;6.6;;;;;;;4.76;100;95594.17;;;;
2020/11/01 03:09:48;;;;;;;10.5;6.6;;;;;;;4.76;100;95594.17;;;;
2020/11/01 03:10:49;;;;;;;10.5;6.6;;;;;;;4.76;100;95594.17;;;;
2020/11/01 03:11:49;;;;;;;10.5;6.6;;;;;;;4.76;100;95594.17;;;;
2020/11/01 03:12:50;;;;;;;10.15;6.65;;;;;;;4.82;100;95595.65;;;;
2020/11/01 03:13:50;;;;;;;10.15;6.65;;;;;;;4.82;100;95595.65;;;;
2020/11/01 03:14:51;;;;;;;10.15;6.65;;;;;;;4.82;100;95595.65;;;;
2020/11/01 03:15:51;;;;;;;10.15;6.65;;;;;;;4.82;100;95595.65;;;;
2020/11/01 03:16:52;;;;;;;10.15;6.65;;;;;;;4.82;100;95595.65;;;;
2020/11/01 03:17:52;;;;;;;10.15;6.65;;;;;;;4.82;100;95595.65;;;;
2020/11/01 03:18:53;;;;;;;10.15;6.65;;;;;;;4.82;100;95595.65;;;;
2020/11/01 03:19:53;;;;;;;10.15;6.65;;;;;;;4.82;100;95595.65;;;;
2020/11/01 03:20:54;;;;;;;10.15;6.65;;;;;;;4.82;100;95595.65;;;;
2020/11/01 03:21:54;;;;;;;10.15;6.65;;;;;;;4.82;100;95595.65;;;;
2020/11/01 03:22:55;;;;;;;10.15;6.65;;;;;;;4.82;100;95595.65;;;;
2020/11/01 03:23:55;;;;;;;9.4;6.6;;;;;;;4.87;100;95583.36;;;;
2020/11/01 03:24:56;;;;;;;9.4;6.6;;;;;;;4.87;100;95583.36;;;;
2020/11/01 03:25:56;;;;;;;9.4;6.6;;;;;;;4.87;100;95583.36;;;;
2020/11/01 03:26:57;;;;;;;9.4;6.6;;;;;;;4.87;100;95583.36;;;;
2020/11/01 03:27:57;;;;;;;9.4;6.6;;;;;;;4.87;100;95583.36;;;;
2020/11/01 03:28:58;;;;;;;9.4;6.6;;;;;;;4.87;100;95583.36;;;;
2020/11/01 03:29:58;;;;;;;9.4;6.6;;;;;;;4.87;100;95583.36;;;;
2020/11/01 03:30:59;;;;;;;9.4;6.6;;;;;;;4.87;100;95583.36;;;;
2020/11/01 03:31:59;;;;;;;9.4;6.6;;;;;;;4.87;100;95583.36;;;;
2020/11/01 03:33:01;;;;;;;9.4;6.6;;;;;;;4.87;100;95583.36;;;;
2020/11/01 03:34:01;;;;;;;10.85;6.349999;;;;;;;5.12;100;95586;;;;
2020/11/01 03:35:02;;;;;;;10.85;6.349999;;;;;;;5.12;100;95586;;;;
2020/11/01 03:36:06;;;;;;;10.85;6.349999;;;;;;;5.12;100;95586;;;;
2020/11/01 03:37:07;;;;;;;10.85;6.349999;;;;;;;5.12;100;95586;;;;
2020/11/01 03:38:07;;;;;;;10.85;6.349999;;;;;;;5.12;100;95586;;;;
2020/11/01 03:39:08;;;;;;;10.85;6.349999;;;;;;;5.12;100;95586;;;;
2020/11/01 03:40:08;;;;;;;10.85;6.349999;;;;;;;5.12;100;95586;;;;
2020/11/01 03:41:09;;;;;;;10.85;6.349999;;;;;;;5.12;100;95586;;;;
2020/11/01 03:42:09;;;;;;;10.85;6.349999;;;;;;;5.12;100;95586;;;;
2020/11/01 03:43:10;;;;;;;10.85;6.349999;;;;;;;5.12;100;95586;;;;
2020/11/01 03:44:10;;;;;;;10.85;6.349999;;;;;;;5.12;100;95586;;;;
2020/11/01 03:45:11;;;;;;;10.1;6.55;;;;;;;5.3;100;95580.06;;;;
2020/11/01 03:46:11;;;;;;;10.1;6.55;;;;;;;5.3;100;95580.06;;;;
2020/11/01 03:47:12;;;;;;;10.1;6.55;;;;;;;5.3;100;95580.06;;;;
2020/11/01 03:48:12;;;;;;;10.1;6.55;;;;;;;5.3;100;95580.06;;;;
2020/11/01 03:49:13;;;;;;;10.1;6.55;;;;;;;5.3;100;95580.06;;;;
2020/11/01 03:50:13;;;;;;;10.1;6.55;;;;;;;5.3;100;95580.06;;;;
2020/11/01 03:51:14;;;;;;;10.1;6.55;;;;;;;5.3;100;95580.06;;;;
2020/11/01 03:52:15;;;;;;;10.1;6.55;;;;;;;5.3;100;95580.06;;;;
2020/11/01 03:53:16;;;;;;;10.1;6.55;;;;;;;5.3;100;95580.06;;;;
2020/11/01 03:54:17;;;;;;;10.1;6.55;;;;;;;5.3;100;95580.06;;;;
2020/11/01 03:55:17;;;;;;;8.6;5.85;;;;;;;5.59;100;95583.01;;;;
2020/11/01 03:56:17;;;;;;;8.6;5.85;;;;;;;5.59;100;95583.01;;;;
2020/11/01 03:57:18;;;;;;;8.6;5.85;;;;;;;5.59;100;95583.01;;;;
2020/11/01 03:58:19;;;;;;;8.6;5.85;;;;;;;5.59;100;95583.01;;;;
2020/11/01 03:59:19;;;;;;;8.6;5.85;;;;;;;5.59;100;95583.01;;;;
2020/11/01 04:00:19;;;;;;;8.6;5.85;;;;;;;5.59;100;95583.01;;;;
2020/11/01 04:01:20;;;;;;;8.6;5.85;;;;;;;5.59;100;95583.01;;;;
2020/11/01 04:02:20;;;;;;;8.6;5.85;;;;;;;5.59;100;95583.01;;;;
2020/11/01 04:03:21;;;;;;;8.6;5.85;;;;;;;5.59;100;95583.01;;;;
2020/11/01 04:04:21;;;;;;;8.6;5.85;;;;;;;5.59;100;95583.01;;;;
2020/11/01 04:05:22;;;;;;;8.6;5.85;;;;;;;5.59;100;95583.01;;;;
2020/11/01 04:06:23;;;;;;;8.700001;5.900001;;;;;;;5.67;100;95585.42;;;;
2020/11/01 04:07:23;;;;;;;8.700001;5.900001;;;;;;;5.67;100;95585.42;;;;
2020/11/01 04:08:24;;;;;;;8.700001;5.900001;;;;;;;5.67;100;95585.42;;;;
2020/11/01 04:09:24;;;;;;;8.700001;5.900001;;;;;;;5.67;100;95585.42;;;;
2020/11/01 04:10:25;;;;;;;8.700001;5.900001;;;;;;;5.67;100;95585.42;;;;
2020/11/01 04:11:25;;;;;;;8.700001;5.900001;;;;;;;5.67;100;95585.42;;;;
2020/11/01 04:12:26;;;;;;;8.700001;5.900001;;;;;;;5.67;100;95585.42;;;;
2020/11/01 04:13:26;;;;;;;8.700001;5.900001;;;;;;;5.67;100;95585.42;;;;
2020/11/01 04:14:27;;;;;;;8.700001;5.900001;;;;;;;5.67;100;95585.42;;;;
2020/11/01 04:15:28;;;;;;;8.700001;5.900001;;;;;;;5.67;100;95585.42;;;;
2020/11/01 04:16:28;;;;;;;8.700001;5.900001;;;;;;;5.67;100;95585.42;;;;
2020/11/01 04:17:29;;;;;;;9.75;6;;;;;;;5.79;100;95580.35;;;;
2020/11/01 04:18:29;;;;;;;9.75;6;;;;;;;5.79;100;95580.35;;;;
2020/11/01 04:19:31;;;;;;;9.75;6;;;;;;;5.79;100;95580.35;;;;
2020/11/01 04:20:31;;;;;;;9.75;6;;;;;;;5.79;100;95580.35;;;;
2020/11/01 04:21:32;;;;;;;9.75;6;;;;;;;5.79;100;95580.35;;;;
2020/11/01 04:22:32;;;;;;;9.75;6;;;;;;;5.79;100;95580.35;;;;
2020/11/01 04:23:33;;;;;;;9.75;6;;;;;;;5.79;100;95580.35;;;;
2020/11/01 04:24:33;;;;;;;9.75;6;;;;;;;5.79;100;95580.35;;;;
2020/11/01 04:25:34;;;;;;;9.75;6;;;;;;;5.79;100;95580.35;;;;
2020/11/01 04:26:34;;;;;;;9.75;6;;;;;;;5.79;100;95580.35;;;;
2020/11/01 04:27:35;;;;;;;8.4;5.649999;;;;;;;5.87;100;95571.23;;;;
2020/11/01 04:28:35;;;;;;;8.4;5.649999;;;;;;;5.87;100;95571.23;;;;
2020/11/01 04:29:36;;;;;;;8.4;5.649999;;;;;;;5.87;100;95571.23;;;;
2020/11/01 04:30:36;;;;;;;8.4;5.649999;;;;;;;5.87;100;95571.23;;;;
2020/11/01 04:31:37;;;;;;;8.4;5.649999;;;;;;;5.87;100;95571.23;;;;
2020/11/01 04:32:37;;;;;;;8.4;5.649999;;;;;;;5.87;100;95571.23;;;;
2020/11/01 04:33:38;;;;;;;8.4;5.649999;;;;;;;5.87;100;95571.23;;;;
2020/11/01 04:34:39;;;;;;;8.4;5.649999;;;;;;;5.87;100;95571.23;;;;
2020/11/01 04:35:39;;;;;;;8.4;5.649999;;;;;;;5.87;100;95571.23;;;;
2020/11/01 04:36:40;;;;;;;8.4;5.649999;;;;;;;5.87;100;95571.23;;;;
2020/11/01 04:37:40;;;;;;;8.4;5.649999;;;;;;;5.87;100;95571.23;;;;
2020/11/01 04:38:41;;;;;;;8.65;5.9;;;;;;;6.13;100;95565.56;;;;
2020/11/01 04:39:41;;;;;;;8.65;5.9;;;;;;;6.13;100;95565.56;;;;
2020/11/01 04:40:42;;;;;;;8.65;5.9;;;;;;;6.13;100;95565.56;;;;
2020/11/01 04:41:43;;;;;;;8.65;5.9;;;;;;;6.13;100;95565.56;;;;
2020/11/01 04:42:43;;;;;;;8.65;5.9;;;;;;;6.13;100;95565.56;;;;
2020/11/01 04:43:44;;;;;;;8.65;5.9;;;;;;;6.13;100;95565.56;;;;
2020/11/01 04:44:44;;;;;;;8.65;5.9;;;;;;;6.13;100;95565.56;;;;
2020/11/01 04:45:45;;;;;;;8.65;5.9;;;;;;;6.13;100;95565.56;;;;
2020/11/01 04:46:45;;;;;;;8.65;5.9;;;;;;;6.13;100;95565.56;;;;
2020/11/01 04:47:47;;;;;;;8.65;5.9;;;;;;;6.13;100;95565.56;;;;
2020/11/01 04:48:48;;;;;;;8.049999;5.5;;;;;;;6.44;100;95558.31;;;;
2020/11/01 04:49:49;;;;;;;8.049999;5.5;;;;;;;6.44;100;95558.31;;;;
2020/11/01 04:50:49;;;;;;;8.049999;5.5;;;;;;;6.44;100;95558.31;;;;
2020/11/01 04:51:50;;;;;;;8.049999;5.5;;;;;;;6.44;100;95558.31;;;;
2020/11/01 04:52:50;;;;;;;8.049999;5.5;;;;;;;6.44;100;95558.31;;;;
2020/11/01 04:53:52;;;;;;;8.049999;5.5;;;;;;;6.44;100;95558.31;;;;
2020/11/01 04:54:53;;;;;;;8.049999;5.5;;;;;;;6.44;100;95558.31;;;;
2020/11/01 04:55:54;;;;;;;8.049999;5.5;;;;;;;6.44;100;95558.31;;;;
2020/11/01 04:56:54;;;;;;;8.049999;5.5;;;;;;;6.44;100;95558.31;;;;
2020/11/01 04:57:55;;;;;;;8.049999;5.5;;;;;;;6.44;100;95558.31;;;;
2020/11/01 04:58:55;;;;;;;8.049999;5.5;;;;;;;6.44;100;95558.31;;;;
2020/11/01 04:59:56;;;;;;;6.9;5.349999;;;;;;;6.8;100;95550.69;;;;
2020/11/01 05:01:06;;;;;;;6.9;5.349999;;;;;;;6.8;100;95550.69;;;;
2020/11/01 05:02:06;;;;;;;6.9;5.349999;;;;;;;6.8;100;95550.69;;;;
2020/11/01 05:03:13;;;;;;;6.9;5.349999;;;;;;;6.8;100;95550.69;;;;
2020/11/01 05:04:13;;;;;;;6.9;5.349999;;;;;;;6.8;100;95550.69;;;;
2020/11/01 05:05:20;;;;;;;6.9;5.349999;;;;;;;6.8;100;95550.69;;;;
2020/11/01 05:06:21;;;;;;;6.9;5.349999;;;;;;;6.8;100;95550.69;;;;
2020/11/01 05:07:37;;;;;;;6.9;5.349999;;;;;;;6.8;100;95550.69;;;;
2020/11/01 05:08:38;;;;;;;6.9;5.349999;;;;;;;6.8;100;95550.69;;;;
2020/11/01 05:09:42;;;;;;;6.9;5.349999;;;;;;;6.8;100;95550.69;;;;
2020/11/01 05:10:42;;;;;;;6.95;4.900001;;;;;;;7.03;100;95551.51;;;;
2020/11/01 05:11:43;;;;;;;6.95;4.900001;;;;;;;7.03;100;95551.51;;;;
2020/11/01 05:12:44;;;;;;;6.95;4.900001;;;;;;;7.03;100;95551.51;;;;
2020/11/01 05:13:45;;;;;;;6.95;4.900001;;;;;;;7.03;100;95551.51;;;;
2020/11/01 05:14:46;;;;;;;6.95;4.900001;;;;;;;7.03;100;95551.51;;;;
2020/11/01 05:15:48;;;;;;;6.95;4.900001;;;;;;;7.03;100;95551.51;;;;
2020/11/01 05:16:59;;;;;;;6.95;4.900001;;;;;;;7.03;100;95551.51;;;;
2020/11/01 05:18:00;;;;;;;6.95;4.900001;;;;;;;7.03;100;95551.51;;;;
2020/11/01 05:19:00;;;;;;;6.95;4.900001;;;;;;;7.03;100;95551.51;;;;
2020/11/01 05:20:07;;;;;;;6.95;4.900001;;;;;;;7.03;100;95551.51;;;;
2020/11/01 05:21:10;;;;;;;5.9;4.9;;;;;;;7.26;100;95538.59;;;;
2020/11/01 05:22:18;;;;;;;5.9;4.9;;;;;;;7.26;100;95538.59;;;;
2020/11/01 05:23:18;;;;;;;5.9;4.9;;;;;;;7.26;100;95538.59;;;;
2020/11/01 05:24:19;;;;;;;5.9;4.9;;;;;;;7.26;100;95538.59;;;;
2020/11/01 05:25:19;;;;;;;5.9;4.9;;;;;;;7.26;100;95538.59;;;;
2020/11/01 05:26:25;;;;;;;5.9;4.9;;;;;;;7.26;100;95538.59;;;;
2020/11/01 05:27:27;;;;;;;5.9;4.9;;;;;;;7.26;100;95538.59;;;;
2020/11/01 05:28:30;;;;;;;5.9;4.9;;;;;;;7.26;100;95538.59;;;;
2020/11/01 05:29:30;;;;;;;5.9;4.9;;;;;;;7.26;100;95538.59;;;;
2020/11/01 05:30:31;;;;;;;5.9;4.9;;;;;;;7.26;100;95538.59;;;;
2020/11/01 05:31:31;;;;;;;7.65;5.500001;;;;;;;7.41;100;95541.88;;;;
2020/11/01 05:32:34;;;;;;;7.65;5.500001;;;;;;;7.41;100;95541.88;;;;
2020/11/01 05:33:34;;;;;;;7.65;5.500001;;;;;;;7.41;100;95541.88;;;;
2020/11/01 05:34:36;;;;;;;7.65;5.500001;;;;;;;7.41;100;95541.88;;;;
2020/11/01 05:35:37;;;;;;;7.65;5.500001;;;;;;;7.41;100;95541.88;;;;
2020/11/01 05:36:38;;;;;;;7.65;5.500001;;;;;;;7.41;100;95541.88;;;;
2020/11/01 05:37:39;;;;;;;7.65;5.500001;;;;;;;7.41;100;95541.88;;;;
2020/11/01 05:38:41;;;;;;;7.65;5.500001;;;;;;;7.41;100;95541.88;;;;
2020/11/01 05:39:42;;;;;;;7.65;5.500001;;;;;;;7.41;100;95541.88;;;;
2020/11/01 05:40:42;;;;;;;7.65;5.500001;;;;;;;7.41;100;95541.88;;;;
2020/11/01 05:41:46;;;;;;;7.65;5.500001;;;;;;;7.41;100;95541.88;;;;
2020/11/01 05:42:47;;;;;;;6.599999;5.3;;;;;;;7.61;100;95530.15;;;;
2020/11/01 05:43:47;;;;;;;6.599999;5.3;;;;;;;7.61;100;95530.15;;;;
2020/11/01 05:44:48;;;;;;;6.599999;5.3;;;;;;;7.61;100;95530.15;;;;
2020/11/01 05:45:49;;;;;;;6.599999;5.3;;;;;;;7.61;100;95530.15;;;;
2020/11/01 05:46:50;;;;;;;6.599999;5.3;;;;;;;7.61;100;95530.15;;;;
2020/11/01 05:47:54;;;;;;;6.599999;5.3;;;;;;;7.61;100;95530.15;;;;
2020/11/01 05:48:55;;;;;;;6.599999;5.3;;;;;;;7.61;100;95530.15;;;;
2020/11/01 05:50:15;;;;;;;6.599999;5.3;;;;;;;7.61;100;95530.15;;;;
2020/11/01 05:51:40;;;;;;;6.599999;5.3;;;;;;;7.61;100;95530.15;;;;
2020/11/01 05:52:40;;;;;;;6.5;5.15;;;;;;;7.68;100;95515.63;;;;
2020/11/01 05:53:44;;;;;;;6.5;5.15;;;;;;;7.68;100;95515.63;;;;
2020/11/01 05:54:44;;;;;;;6.5;5.15;;;;;;;7.68;100;95515.63;;;;
2020/11/01 05:55:45;;;;;;;6.5;5.15;;;;;;;7.68;100;95515.63;;;;
2020/11/01 05:56:45;;;;;;;6.5;5.15;;;;;;;7.68;100;95515.63;;;;
2020/11/01 05:57:46;;;;;;;6.5;5.15;;;;;;;7.68;100;95515.63;;;;
2020/11/01 05:58:47;;;;;;;6.5;5.15;;;;;;;7.68;100;95515.63;;;;
2020/11/01 05:59:47;;;;;;;6.5;5.15;;;;;;;7.68;100;95515.63;;;;
2020/11/01 06:00:52;;;;;;;6.5;5.15;;;;;;;7.68;100;95515.63;;;;
2020/11/01 06:01:54;;;;;;;6.5;5.15;;;;;;;7.68;100;95515.63;;;;
2020/11/01 06:02:54;;;;;;;6.5;5.15;;;;;;;7.68;100;95515.63;;;;
2020/11/01 06:04:22;;;;;;;6.899999;5;;;;;;;7.89;100;95524.77;;;;
2020/11/01 06:05:24;;;;;;;6.899999;5;;;;;;;7.89;100;95524.77;;;;
2020/11/01 06:06:25;;;;;;;6.899999;5;;;;;;;7.89;100;95524.77;;;;
2020/11/01 06:07:25;;;;;;;6.899999;5;;;;;;;7.89;100;95524.77;;;;
2020/11/01 06:08:26;;;;;;;6.899999;5;;;;;;;7.89;100;95524.77;;;;
2020/11/01 06:09:26;;;;;;;6.899999;5;;;;;;;7.89;100;95524.77;;;;
2020/11/01 06:10:27;;;;;;;6.899999;5;;;;;;;7.89;100;95524.77;;;;